createdAt,value
2018-12-20T00:03:49.304Z,99133.23
2018-12-20T00:09:53.041Z,99122.09
2018-12-20T00:15:56.642Z,99129.58
2018-12-20T00:22:00.049Z,99135.25
2018-12-20T00:28:03.422Z,99124.27
2018-12-20T00:34:06.960Z,99120.55
2018-12-20T00:40:10.384Z,99118.44
2018-12-20T00:46:13.878Z,99122.74
2018-12-20T00:52:17.369Z,99114.09
2018-12-20T00:58:20.748Z,99119.77
2018-12-20T01:04:24.111Z,99134.23
2018-12-20T01:10:27.601Z,99134.25
2018-12-20T01:16:31.182Z,99137.14
2018-12-20T01:22:34.848Z,99145.52
2018-12-20T01:28:38.301Z,99148.67
2018-12-20T01:34:41.723Z,99144.50
2018-12-20T01:40:45.237Z,99150.20
2018-12-20T01:46:49.168Z,99145.53
2018-12-20T01:52:52.533Z,99150.70
2018-12-20T01:58:55.963Z,99155.83
2018-12-20T02:04:59.318Z,99142.84
2018-12-20T02:11:02.813Z,99140.02
2018-12-20T02:17:06.224Z,99151.84
2018-12-20T02:23:09.759Z,99140.69
2018-12-20T02:29:13.475Z,99137.55
2018-12-20T02:35:17.094Z,99136.72
2018-12-20T02:41:21.525Z,99119.93
2018-12-20T02:53:40.613Z,99116.45
2018-12-20T02:59:43.939Z,99119.91
2018-12-20T03:05:47.355Z,99107.97
2018-12-20T03:11:51.433Z,99092.67
2018-12-20T03:17:54.918Z,99094.00
2018-12-20T03:23:58.518Z,99106.64
2018-12-20T03:30:02.008Z,99094.66
2018-12-20T03:36:05.510Z,99092.92
2018-12-20T03:42:08.888Z,99080.67
2018-12-20T03:48:12.347Z,99079.83
2018-12-20T03:54:15.978Z,99082.11
2018-12-20T04:00:19.525Z,99080.34
2018-12-20T04:06:22.948Z,99082.40
2018-12-20T04:12:27.107Z,99087.19
2018-12-20T04:18:30.573Z,99080.72
2018-12-20T04:24:34.045Z,99074.44
2018-12-20T04:30:37.575Z,99065.46
2018-12-20T04:36:40.941Z,99062.48
2018-12-20T04:42:44.296Z,99080.89
2018-12-20T04:48:47.787Z,99080.27
2018-12-20T04:54:51.682Z,99092.84
2018-12-20T05:00:55.111Z,99089.88
2018-12-20T05:06:58.557Z,99089.55
2018-12-20T05:13:02.016Z,99093.87
2018-12-20T05:19:05.754Z,99099.71
2018-12-20T05:25:09.289Z,99091.03
2018-12-20T05:31:12.686Z,99074.45
2018-12-20T05:37:16.051Z,99085.09
2018-12-20T05:43:19.393Z,99090.73
2018-12-20T05:49:22.731Z,99092.58
2018-12-20T05:55:26.114Z,99094.91
2018-12-20T06:01:29.581Z,99087.94
2018-12-20T06:07:33.140Z,99082.43
2018-12-20T06:13:36.588Z,99074.75
2018-12-20T06:19:40.029Z,99085.59
2018-12-20T06:25:43.482Z,99077.42
2018-12-20T06:31:46.838Z,99081.92
2018-12-20T06:37:50.195Z,99091.92
2018-12-20T06:43:53.604Z,99094.91
2018-12-20T06:49:56.945Z,99090.41
2018-12-20T06:56:00.275Z,99083.59
2018-12-20T07:02:03.708Z,99085.48
2018-12-20T07:08:07.040Z,99081.16
2018-12-20T07:14:10.375Z,99082.14
2018-12-20T07:20:13.719Z,99075.80
2018-12-20T07:26:17.056Z,99080.17
2018-12-20T07:32:25.120Z,99080.16
2018-12-20T07:38:25.771Z,99089.78
2018-12-20T07:44:29.142Z,99094.09
2018-12-20T07:50:32.493Z,99094.59
2018-12-20T07:56:35.921Z,99098.88
2018-12-20T08:02:39.265Z,99096.53
2018-12-20T08:08:42.602Z,99093.86
2018-12-20T08:14:45.940Z,99095.94
2018-12-20T08:20:49.294Z,99098.59
2018-12-20T08:26:52.632Z,99099.33
2018-12-20T08:32:55.967Z,99109.64
2018-12-20T08:38:59.309Z,99108.53
2018-12-20T08:45:02.634Z,99110.20
2018-12-20T08:51:05.983Z,99110.58
2018-12-20T08:57:09.351Z,99110.14
2018-12-20T09:03:12.690Z,99109.38
2018-12-20T09:09:16.040Z,99111.09
2018-12-20T09:15:19.381Z,99112.74
2018-12-20T09:21:22.779Z,99106.67
2018-12-20T09:27:26.100Z,99113.91
2018-12-20T09:33:29.425Z,99110.55
2018-12-20T09:39:32.760Z,99114.22
2018-12-20T09:45:36.123Z,99122.00
2018-12-20T09:51:39.473Z,99118.38
2018-12-20T09:57:42.820Z,99122.25
2018-12-20T10:03:46.169Z,99119.45
2018-12-20T10:09:49.499Z,99115.64
2018-12-20T10:15:52.872Z,99117.78
2018-12-20T10:21:56.224Z,99114.58
2018-12-20T10:27:59.858Z,99115.11
2018-12-20T10:34:03.206Z,99100.14
2018-12-20T10:40:06.836Z,99095.48
2018-12-20T10:46:10.197Z,99089.08
2018-12-20T10:52:13.748Z,99077.81
2018-12-20T10:58:17.099Z,99078.52
2018-12-20T11:04:26.743Z,99071.59
2018-12-20T11:10:30.080Z,99072.13
2018-12-20T11:16:33.415Z,99072.11
2018-12-20T11:22:36.784Z,99063.37
2018-12-20T11:28:40.123Z,99066.44
2018-12-20T11:34:43.514Z,99060.45
2018-12-20T11:40:46.858Z,99056.51
2018-12-20T11:46:50.272Z,99043.50
2018-12-20T11:52:53.597Z,99046.54
2018-12-20T11:58:56.937Z,99037.47
2018-12-20T12:05:00.283Z,99036.14
2018-12-20T12:11:03.628Z,99033.77
2018-12-20T12:17:06.955Z,99027.73
2018-12-20T12:23:10.519Z,99021.84
2018-12-20T12:29:13.876Z,99023.38
2018-12-20T12:35:17.209Z,99026.57
2018-12-20T12:41:20.551Z,99034.24
2018-12-20T12:47:29.368Z,99032.45
2018-12-20T12:53:32.698Z,99034.92
2018-12-20T12:59:36.027Z,99028.79
2018-12-20T13:05:39.413Z,99023.24
2018-12-20T13:11:42.804Z,99022.01
2018-12-20T13:17:46.162Z,99027.33
2018-12-20T13:23:49.500Z,99018.04
2018-12-20T13:29:52.822Z,99032.05
2018-12-20T13:35:56.266Z,99041.20
2018-12-20T13:41:59.615Z,99032.81
2018-12-20T13:48:02.946Z,99040.00
2018-12-20T13:54:06.282Z,99038.67
2018-12-20T14:06:26.356Z,99050.51
2018-12-20T14:12:30.424Z,99051.36
2018-12-20T14:18:33.753Z,99058.27
2018-12-20T14:24:37.071Z,99053.26
2018-12-20T14:30:40.478Z,99050.05
2018-12-20T14:36:43.802Z,99049.88
2018-12-20T14:42:47.126Z,99055.02
2018-12-20T14:48:50.469Z,99048.78
2018-12-20T14:54:53.830Z,99048.78
2018-12-20T15:00:57.191Z,99051.83
2018-12-20T15:07:00.520Z,99060.23
2018-12-20T15:13:03.867Z,99062.08
2018-12-20T15:19:07.217Z,99068.44
2018-12-20T15:25:10.567Z,99069.55
2018-12-20T15:31:13.928Z,99064.77
2018-12-20T15:37:17.255Z,99078.89
2018-12-20T15:43:20.613Z,99081.15
2018-12-20T15:49:23.936Z,99083.24
2018-12-20T15:55:27.270Z,99081.89
2018-12-20T16:01:30.607Z,99077.38
2018-12-20T16:07:33.948Z,99077.72
2018-12-20T16:13:37.270Z,99076.50
2018-12-20T16:19:40.605Z,99081.58
2018-12-20T16:25:43.983Z,99087.64
2018-12-20T16:31:47.336Z,99077.53
2018-12-20T16:37:50.843Z,99089.89
2018-12-20T16:43:54.161Z,99099.13
2018-12-20T16:49:57.500Z,99100.84
2018-12-20T16:56:00.862Z,99098.40
2018-12-20T17:02:04.206Z,99088.45
2018-12-20T17:08:07.540Z,99090.77
2018-12-20T17:14:10.911Z,99098.31
2018-12-20T17:20:14.265Z,99096.67
2018-12-20T17:26:17.597Z,99103.15
2018-12-20T17:32:20.930Z,99120.56
2018-12-20T17:38:24.272Z,99107.84
2018-12-20T17:44:27.598Z,99103.13
2018-12-20T17:50:30.975Z,99103.69
2018-12-20T17:56:34.293Z,99110.09
2018-12-20T18:02:37.654Z,99111.00
2018-12-20T18:08:41.239Z,99103.51
2018-12-20T18:14:44.567Z,99105.39
2018-12-20T18:20:47.908Z,99108.77
2018-12-20T18:26:51.271Z,99113.11
2018-12-20T18:32:54.614Z,99112.67
2018-12-20T18:38:57.945Z,99112.79
2018-12-20T18:45:01.272Z,99117.73
2018-12-20T18:51:04.713Z,99114.52
2018-12-20T18:57:08.052Z,99108.53
2018-12-20T19:03:11.372Z,99110.22
2018-12-20T19:09:14.703Z,99102.37
2018-12-20T19:15:18.135Z,99103.91
2018-12-20T19:21:21.537Z,99110.17
2018-12-20T19:27:24.869Z,99107.27
2018-12-20T19:33:28.187Z,99117.47
2018-12-20T19:39:31.524Z,99109.86
2018-12-20T19:45:34.854Z,99124.17
2018-12-20T19:51:38.305Z,99117.27
2018-12-20T19:57:41.643Z,99113.55
2018-12-20T20:03:45.005Z,99107.55
2018-12-20T20:09:48.494Z,99110.09
2018-12-20T20:15:51.840Z,99114.38
2018-12-20T20:21:55.187Z,99100.63
2018-12-20T20:27:58.524Z,99099.94
2018-12-20T20:34:01.889Z,99107.70
2018-12-20T20:40:07.711Z,99103.51
2018-12-20T20:46:11.045Z,99102.88
2018-12-20T20:52:14.370Z,99100.53
2018-12-20T20:58:17.696Z,99100.17
2018-12-20T21:04:21.048Z,99091.86
2018-12-20T21:10:24.392Z,99092.09
2018-12-20T21:16:27.732Z,99089.73
2018-12-20T21:22:31.070Z,99085.12
2018-12-20T21:28:34.403Z,99081.16
2018-12-20T21:34:37.736Z,99087.55
2018-12-20T21:40:41.083Z,99083.84
2018-12-20T21:46:44.482Z,99097.08
2018-12-20T21:52:47.909Z,99093.86
2018-12-20T21:58:51.255Z,99099.61
2018-12-20T22:04:54.600Z,99098.26
2018-12-20T22:10:57.928Z,99094.73
2018-12-20T22:17:01.270Z,99093.81
2018-12-20T22:23:04.603Z,99094.77
2018-12-20T22:29:07.953Z,99102.64
2018-12-20T22:35:11.278Z,99087.14
2018-12-20T22:41:14.712Z,99089.82
2018-12-20T22:47:18.162Z,99080.20
2018-12-20T22:53:21.482Z,99071.94
2018-12-20T22:59:24.835Z,99072.20
2018-12-20T23:05:28.154Z,99073.27
2018-12-20T23:11:31.478Z,99080.55
2018-12-20T23:17:34.806Z,99084.45
2018-12-20T23:23:38.165Z,99083.27
2018-12-20T23:29:41.515Z,99069.27
2018-12-20T23:35:44.865Z,99069.66
2018-12-20T23:41:48.203Z,99065.84
2018-12-20T23:47:51.524Z,99057.05
2018-12-20T23:53:55.018Z,99046.59
2018-12-20T23:59:58.351Z,99044.31
